createdAt,value
2023-05-19T00:00:50.604Z,3.00
2023-05-19T00:01:48.979Z,2.90
2023-05-19T00:02:49.041Z,2.60
2023-05-19T00:03:48.945Z,3.60
2023-05-19T00:04:48.931Z,2.80
2023-05-19T00:05:48.980Z,2.80
2023-05-19T00:06:48.937Z,2.80
2023-05-19T00:07:48.929Z,3.10
2023-05-19T00:08:48.950Z,2.80
2023-05-19T00:09:48.919Z,2.90
2023-05-19T00:10:48.913Z,2.90
2023-05-19T00:11:48.923Z,2.70
2023-05-19T00:12:48.905Z,2.90
2023-05-19T00:13:48.900Z,3.20
2023-05-19T00:14:48.895Z,3.00
2023-05-19T00:15:48.915Z,3.40
2023-05-19T00:16:48.866Z,3.00
2023-05-19T00:17:48.895Z,3.10
2023-05-19T00:18:49.913Z,2.90
2023-05-19T00:19:49.375Z,2.90
2023-05-19T00:20:48.867Z,2.60
2023-05-19T00:21:48.840Z,2.60
2023-05-19T00:22:48.842Z,2.80
2023-05-19T00:23:48.845Z,2.90
2023-05-19T00:24:48.838Z,2.90
2023-05-19T00:25:48.850Z,2.80
2023-05-19T00:26:48.803Z,3.20
2023-05-19T00:27:48.808Z,3.20
2023-05-19T00:28:48.799Z,3.10
2023-05-19T00:29:48.831Z,2.90
2023-05-19T00:30:48.802Z,3.50
2023-05-19T00:31:48.830Z,3.30
2023-05-19T00:32:48.826Z,2.80
2023-05-19T00:33:48.781Z,3.00
2023-05-19T00:34:48.783Z,2.70
2023-05-19T00:35:48.759Z,3.40
2023-05-19T00:36:48.745Z,2.70
2023-05-19T00:37:48.786Z,3.10
2023-05-19T00:38:48.745Z,2.90
2023-05-19T00:39:48.731Z,3.10
2023-05-19T00:40:48.747Z,2.70
2023-05-19T00:41:48.742Z,2.80
2023-05-19T00:42:48.768Z,2.60
2023-05-19T00:43:48.749Z,2.80
2023-05-19T00:44:48.728Z,2.70
2023-05-19T00:45:48.717Z,2.80
2023-05-19T00:46:48.751Z,3.10
2023-05-19T00:47:48.779Z,3.00
2023-05-19T00:48:48.710Z,2.90
2023-05-19T00:49:48.694Z,3.00
2023-05-19T00:50:48.691Z,3.20
2023-05-19T00:51:48.691Z,2.60
2023-05-19T00:52:48.662Z,3.10
2023-05-19T00:53:48.670Z,3.10
2023-05-19T00:54:48.659Z,3.40
2023-05-19T00:55:48.675Z,3.70
2023-05-19T00:56:48.630Z,4.60
2023-05-19T00:57:48.633Z,4.40
2023-05-19T00:58:48.629Z,4.10
2023-05-19T00:59:48.621Z,3.80
2023-05-19T01:00:48.648Z,3.60
2023-05-19T01:01:48.600Z,3.30
2023-05-19T01:02:48.720Z,3.70
2023-05-19T01:03:48.780Z,4.90
2023-05-19T01:04:48.606Z,5.30
2023-05-19T01:05:48.636Z,4.00
2023-05-19T01:06:48.669Z,4.30
2023-05-19T01:07:48.567Z,3.70
2023-05-19T01:08:48.578Z,4.40
2023-05-19T01:09:48.576Z,4.30
2023-05-19T01:10:48.550Z,4.20
2023-05-19T01:11:48.550Z,4.10
2023-05-19T01:12:48.557Z,5.40
2023-05-19T01:13:48.973Z,4.60
2023-05-19T01:14:49.396Z,4.70
2023-05-19T01:15:48.556Z,5.40
2023-05-19T01:16:48.712Z,5.10
2023-05-19T01:17:48.570Z,5.90
2023-05-19T01:18:48.551Z,7.10
2023-05-19T01:19:48.540Z,5.40
2023-05-19T01:20:48.510Z,4.80
2023-05-19T01:21:48.498Z,5.10
2023-05-19T01:22:49.408Z,6.00
2023-05-19T01:23:48.488Z,5.80
2023-05-19T01:24:49.392Z,6.70
2023-05-19T01:25:48.556Z,5.50
2023-05-19T01:26:48.462Z,8.60
2023-05-19T01:27:48.485Z,7.60
2023-05-19T01:28:48.458Z,7.80
2023-05-19T01:29:48.530Z,8.40
2023-05-19T01:30:48.451Z,9.40
2023-05-19T01:31:48.525Z,8.70
2023-05-19T01:32:48.529Z,8.50
2023-05-19T01:33:48.428Z,8.10
2023-05-19T01:34:49.405Z,8.70
2023-05-19T01:35:48.492Z,6.20
2023-05-19T01:36:48.417Z,6.60
2023-05-19T01:37:48.414Z,7.60
2023-05-19T01:38:48.410Z,7.20
2023-05-19T01:39:49.390Z,8.00
2023-05-19T01:40:48.437Z,9.90
2023-05-19T01:41:48.373Z,10.00
2023-05-19T01:42:48.370Z,7.40
2023-05-19T01:43:48.392Z,5.50
2023-05-19T01:44:49.378Z,7.60
2023-05-19T01:45:48.482Z,4.90
2023-05-19T01:46:48.342Z,5.90
2023-05-19T01:47:48.378Z,7.00
2023-05-19T01:48:48.319Z,7.70
2023-05-19T01:49:48.356Z,5.50
2023-05-19T01:50:48.341Z,5.50
2023-05-19T01:51:48.302Z,6.40
2023-05-19T01:52:48.326Z,5.80
2023-05-19T01:53:48.298Z,5.00
2023-05-19T01:54:48.962Z,4.90
2023-05-19T01:55:48.440Z,4.90
2023-05-19T01:56:48.274Z,4.90
2023-05-19T01:57:48.258Z,5.00
2023-05-19T01:58:48.266Z,5.20
2023-05-19T01:59:48.332Z,4.80
2023-05-19T02:00:48.292Z,5.60
2023-05-19T02:01:48.301Z,5.10
2023-05-19T02:02:48.246Z,5.30
2023-05-19T02:03:48.282Z,6.00
2023-05-19T02:04:49.039Z,4.90
2023-05-19T02:05:48.277Z,7.00
2023-05-19T02:06:48.209Z,6.30
2023-05-19T02:07:48.212Z,5.40
2023-05-19T02:08:48.213Z,5.60
2023-05-19T02:09:48.264Z,5.40
2023-05-19T02:10:48.189Z,5.70
2023-05-19T02:11:48.184Z,6.30
2023-05-19T02:12:48.172Z,5.40
2023-05-19T02:13:48.181Z,6.50
2023-05-19T02:14:48.179Z,6.70
2023-05-19T02:15:48.200Z,5.30
2023-05-19T02:16:48.381Z,5.50
2023-05-19T02:17:48.322Z,6.00
2023-05-19T02:18:48.175Z,6.50
2023-05-19T02:19:48.267Z,6.10
2023-05-19T02:20:48.133Z,6.80
2023-05-19T02:21:49.153Z,7.00
2023-05-19T02:22:48.138Z,6.80
2023-05-19T02:23:48.108Z,5.70
2023-05-19T02:24:48.153Z,6.90
2023-05-19T02:25:48.105Z,6.10
2023-05-19T02:26:48.091Z,6.70
2023-05-19T02:27:48.107Z,8.00
2023-05-19T02:28:48.101Z,7.50
2023-05-19T02:29:48.074Z,6.20
2023-05-19T02:30:48.054Z,6.70
2023-05-19T02:31:48.144Z,5.80
2023-05-19T02:32:48.165Z,5.90
2023-05-19T02:33:48.050Z,5.80
2023-05-19T02:34:48.045Z,6.00
2023-05-19T02:35:48.046Z,6.00
2023-05-19T02:36:48.045Z,5.80
2023-05-19T02:37:48.086Z,5.60
2023-05-19T02:38:48.028Z,4.70
2023-05-19T02:39:48.040Z,4.00
2023-05-19T02:40:48.008Z,4.30
2023-05-19T02:41:48.002Z,4.90
2023-05-19T02:42:48.020Z,5.20
2023-05-19T02:43:47.973Z,5.80
2023-05-19T02:44:47.986Z,5.70
2023-05-19T02:45:47.986Z,5.30
2023-05-19T02:46:48.030Z,5.70
2023-05-19T02:47:47.998Z,5.90
2023-05-19T02:48:47.970Z,5.70
2023-05-19T02:49:47.989Z,6.80
2023-05-19T02:50:47.947Z,5.60
2023-05-19T02:51:47.945Z,4.40
2023-05-19T02:52:47.927Z,4.00
2023-05-19T02:53:47.931Z,4.40
2023-05-19T02:54:47.949Z,3.80
2023-05-19T02:55:47.938Z,4.10
2023-05-19T02:56:47.929Z,4.30
2023-05-19T02:57:47.944Z,4.20
2023-05-19T02:58:47.928Z,4.00
2023-05-19T02:59:47.895Z,3.90
2023-05-19T03:00:47.929Z,3.70
2023-05-19T03:01:47.922Z,4.00
2023-05-19T03:02:47.987Z,4.30
2023-05-19T03:03:48.011Z,3.80
2023-05-19T03:04:47.868Z,3.80
2023-05-19T03:05:47.884Z,3.60
2023-05-19T03:06:47.850Z,3.70
2023-05-19T03:07:47.851Z,4.00
2023-05-19T03:08:47.832Z,4.60
2023-05-19T03:09:47.836Z,4.30
2023-05-19T03:10:47.817Z,4.70
2023-05-19T03:11:47.833Z,3.90
2023-05-19T03:12:48.855Z,4.30
2023-05-19T03:13:47.836Z,3.70
2023-05-19T03:14:47.820Z,3.90
2023-05-19T03:15:47.853Z,4.00
2023-05-19T03:16:47.889Z,4.00
2023-05-19T03:17:47.842Z,4.20
2023-05-19T03:18:47.898Z,3.90
2023-05-19T03:19:47.846Z,3.70
2023-05-19T03:20:47.775Z,8.30
2023-05-19T03:21:47.768Z,11.60
2023-05-19T03:22:47.744Z,10.30
2023-05-19T03:23:47.759Z,10.40
2023-05-19T03:24:47.738Z,8.30
2023-05-19T03:25:47.729Z,6.00
2023-05-19T03:26:47.786Z,4.60
2023-05-19T03:27:47.760Z,4.80
2023-05-19T03:28:47.737Z,4.80
2023-05-19T03:29:47.725Z,5.20
2023-05-19T03:30:47.704Z,4.60
2023-05-19T03:31:47.700Z,5.20
2023-05-19T03:32:47.866Z,5.30
2023-05-19T03:33:47.728Z,5.20
2023-05-19T03:34:47.904Z,4.40
2023-05-19T03:35:47.663Z,4.20
2023-05-19T03:36:47.692Z,4.30
2023-05-19T03:37:47.696Z,4.60
2023-05-19T03:38:47.660Z,5.00
2023-05-19T03:39:48.341Z,4.50
2023-05-19T03:40:47.642Z,4.80
2023-05-19T03:41:47.665Z,4.60
2023-05-19T03:42:47.747Z,4.50
2023-05-19T03:43:47.649Z,4.30
2023-05-19T03:44:48.387Z,4.30
2023-05-19T03:45:47.647Z,4.30
2023-05-19T03:46:47.607Z,4.60
2023-05-19T03:47:47.670Z,4.40
2023-05-19T03:48:47.611Z,4.30
2023-05-19T03:49:48.382Z,4.60
2023-05-19T03:50:47.606Z,5.00
2023-05-19T03:51:47.588Z,5.10
2023-05-19T03:52:47.573Z,4.20
2023-05-19T03:53:47.556Z,4.00
2023-05-19T03:54:48.285Z,4.20
2023-05-19T03:55:47.557Z,4.50
2023-05-19T03:56:47.541Z,4.90
2023-05-19T03:57:47.579Z,5.60
2023-05-19T03:58:47.550Z,5.00
2023-05-19T03:59:48.328Z,4.70
2023-05-19T04:00:47.511Z,4.90
2023-05-19T04:01:47.548Z,4.80
2023-05-19T04:02:47.559Z,4.80
2023-05-19T04:03:47.572Z,4.60
2023-05-19T04:04:47.668Z,4.80
2023-05-19T04:05:47.602Z,5.00
2023-05-19T04:06:47.509Z,5.40
2023-05-19T04:07:47.484Z,4.80
2023-05-19T04:08:47.488Z,4.90
2023-05-19T04:09:47.585Z,4.60
2023-05-19T04:10:47.469Z,4.80
2023-05-19T04:11:47.472Z,4.80
2023-05-19T04:12:47.441Z,5.30
2023-05-19T04:13:47.443Z,4.30
2023-05-19T04:14:47.467Z,4.50
2023-05-19T04:15:47.492Z,5.30
2023-05-19T04:16:47.431Z,5.40
2023-05-19T04:17:47.427Z,5.80
2023-05-19T04:18:47.543Z,7.40
2023-05-19T04:19:47.412Z,12.50
2023-05-19T04:20:47.409Z,30.20
2023-05-19T04:21:47.387Z,54.10
2023-05-19T04:22:47.376Z,30.90
2023-05-19T04:23:47.402Z,67.70
2023-05-19T04:24:47.408Z,94.30
2023-05-19T04:25:47.359Z,73.20
2023-05-19T04:26:47.389Z,111.70
2023-05-19T04:27:47.362Z,119.00
2023-05-19T04:28:47.461Z,44.10
2023-05-19T04:29:47.373Z,51.50
2023-05-19T04:30:47.365Z,32.20
2023-05-19T04:31:47.363Z,46.70
2023-05-19T04:32:47.331Z,34.40
2023-05-19T04:33:47.317Z,20.90
2023-05-19T04:34:47.313Z,19.20
2023-05-19T04:35:47.302Z,18.60
2023-05-19T04:36:47.310Z,17.80
2023-05-19T04:37:47.341Z,14.00
2023-05-19T04:38:47.898Z,13.10
2023-05-19T04:39:47.261Z,12.40
2023-05-19T04:40:47.293Z,10.50
2023-05-19T04:41:47.278Z,10.80
2023-05-19T04:42:47.238Z,10.40
2023-05-19T04:43:47.296Z,9.30
2023-05-19T04:44:47.247Z,9.00
2023-05-19T04:45:47.248Z,9.90
2023-05-19T04:46:47.267Z,8.60
2023-05-19T04:47:47.281Z,8.40
2023-05-19T04:48:47.222Z,9.20
2023-05-19T04:49:47.216Z,7.70
2023-05-19T04:50:47.211Z,7.50
2023-05-19T04:51:47.217Z,16.80
2023-05-19T04:52:47.200Z,33.70
2023-05-19T04:53:48.188Z,70.80
2023-05-19T04:54:47.214Z,116.70
2023-05-19T04:55:47.169Z,117.50
2023-05-19T04:56:47.179Z,44.90
2023-05-19T04:57:47.174Z,51.40
2023-05-19T04:58:47.169Z,18.80
2023-05-19T04:59:47.172Z,74.60
2023-05-19T05:00:47.172Z,65.60
2023-05-19T05:01:48.202Z,70.40
2023-05-19T05:02:47.243Z,86.80
2023-05-19T05:03:47.173Z,92.50
2023-05-19T05:04:47.130Z,98.70
2023-05-19T05:05:47.119Z,96.20
2023-05-19T05:06:47.150Z,65.70
2023-05-19T05:07:47.118Z,39.60
2023-05-19T05:08:47.122Z,34.00
2023-05-19T05:09:47.118Z,24.30
2023-05-19T05:10:47.099Z,21.00
2023-05-19T05:11:47.081Z,22.20
2023-05-19T05:12:47.064Z,16.20
2023-05-19T05:13:47.077Z,16.10
2023-05-19T05:14:47.080Z,11.10
2023-05-19T05:15:47.075Z,8.90
2023-05-19T05:16:47.137Z,8.70
2023-05-19T05:17:47.110Z,6.60
2023-05-19T05:18:47.118Z,6.90
2023-05-19T05:19:47.059Z,5.60
2023-05-19T05:20:47.040Z,6.70
2023-05-19T05:21:47.061Z,6.10
2023-05-19T05:22:47.020Z,6.90
2023-05-19T05:23:47.002Z,6.00
2023-05-19T05:24:47.350Z,5.80
2023-05-19T05:25:46.984Z,5.90
2023-05-19T05:26:46.994Z,5.60
2023-05-19T05:27:47.002Z,4.40
2023-05-19T05:28:46.974Z,5.10
2023-05-19T05:29:47.005Z,5.80
2023-05-19T05:30:46.962Z,6.80
2023-05-19T05:31:46.981Z,4.40
2023-05-19T05:32:47.010Z,4.80
2023-05-19T05:33:47.058Z,4.30
2023-05-19T05:34:46.947Z,4.40
2023-05-19T05:35:46.993Z,4.20
2023-05-19T05:36:46.956Z,4.30
2023-05-19T05:37:46.939Z,3.80
2023-05-19T05:38:46.914Z,4.60
2023-05-19T05:39:46.912Z,4.80
2023-05-19T05:40:46.940Z,4.50
2023-05-19T05:41:46.905Z,4.60
2023-05-19T05:42:46.892Z,4.30
2023-05-19T05:43:46.922Z,4.30
2023-05-19T05:44:46.885Z,4.40
2023-05-19T05:45:46.901Z,4.10
2023-05-19T05:46:46.898Z,3.90
2023-05-19T05:47:47.002Z,3.80
2023-05-19T05:48:46.864Z,4.60
2023-05-19T05:49:46.888Z,7.50
2023-05-19T05:50:46.901Z,4.90
2023-05-19T05:51:57.965Z,4.70
2023-05-19T05:52:48.893Z,5.50
2023-05-19T05:53:46.866Z,3.90
2023-05-19T05:54:46.830Z,3.50
2023-05-19T05:55:46.879Z,3.90
2023-05-19T05:56:46.831Z,4.00
2023-05-19T05:57:47.397Z,4.00
2023-05-19T05:58:46.865Z,4.00
2023-05-19T05:59:46.788Z,4.00
2023-05-19T06:00:46.792Z,4.40
2023-05-19T06:01:46.831Z,6.60
2023-05-19T06:02:46.875Z,5.40
2023-05-19T06:03:46.908Z,4.60
2023-05-19T06:04:46.768Z,5.10
2023-05-19T06:05:46.815Z,4.70
2023-05-19T06:06:47.839Z,3.90
2023-05-19T06:07:46.799Z,3.70
2023-05-19T06:08:46.742Z,4.20
2023-05-19T06:09:46.775Z,3.40
2023-05-19T06:10:47.546Z,4.00
2023-05-19T06:11:47.844Z,3.90
2023-05-19T06:12:46.719Z,4.70
2023-05-19T06:13:47.487Z,4.10
2023-05-19T06:14:46.770Z,3.80
2023-05-19T06:15:46.763Z,3.90
2023-05-19T06:16:46.754Z,4.30
2023-05-19T06:17:49.616Z,3.70
2023-05-19T06:18:46.766Z,3.60
2023-05-19T06:19:46.704Z,3.90
2023-05-19T06:20:46.695Z,5.00
2023-05-19T06:21:46.670Z,4.30
2023-05-19T06:22:46.694Z,4.10
2023-05-19T06:23:46.717Z,3.60
2023-05-19T06:24:46.657Z,3.20
2023-05-19T06:25:46.649Z,3.60
2023-05-19T06:26:46.684Z,3.60
2023-05-19T06:27:46.652Z,3.30
2023-05-19T06:28:46.657Z,3.90
2023-05-19T06:29:46.641Z,3.50
2023-05-19T06:30:46.652Z,3.20
2023-05-19T06:31:46.691Z,3.20
2023-05-19T06:32:46.651Z,3.10
2023-05-19T06:33:46.614Z,3.10
2023-05-19T06:34:46.648Z,3.40
2023-05-19T06:35:46.677Z,3.10
2023-05-19T06:36:46.627Z,3.30
2023-05-19T06:37:46.584Z,3.20
2023-05-19T06:38:46.612Z,3.60
2023-05-19T06:39:46.615Z,3.40
2023-05-19T06:40:46.618Z,3.60
2023-05-19T06:41:46.581Z,3.70
2023-05-19T06:42:47.393Z,3.90
2023-05-19T06:43:46.527Z,3.10
2023-05-19T06:44:46.535Z,3.10
2023-05-19T06:45:46.566Z,3.10
2023-05-19T06:46:46.614Z,3.30
2023-05-19T06:47:46.532Z,3.20
2023-05-19T06:48:47.493Z,3.10
2023-05-19T06:49:46.501Z,3.60
2023-05-19T06:50:46.497Z,3.00
2023-05-19T06:51:46.505Z,2.90
2023-05-19T06:52:46.486Z,3.30
2023-05-19T06:53:46.479Z,3.30
2023-05-19T06:54:46.472Z,2.90
2023-05-19T06:55:57.911Z,3.00
2023-05-19T06:56:48.465Z,3.30
2023-05-19T06:57:46.554Z,2.70
2023-05-19T06:58:46.455Z,2.80
2023-05-19T06:59:46.448Z,2.70
2023-05-19T07:00:46.477Z,3.00
2023-05-19T07:01:46.478Z,2.50
2023-05-19T07:02:46.580Z,2.50
2023-05-19T07:03:46.525Z,2.90
2023-05-19T07:04:46.426Z,3.00
2023-05-19T07:05:46.398Z,2.50
2023-05-19T07:06:46.374Z,2.90
2023-05-19T07:07:46.466Z,2.50
2023-05-19T07:08:46.451Z,2.60
2023-05-19T07:09:46.363Z,2.70
2023-05-19T07:10:46.391Z,2.60
2023-05-19T07:11:46.412Z,2.70
2023-05-19T07:12:46.351Z,2.50
2023-05-19T07:13:46.383Z,2.80
2023-05-19T07:14:46.350Z,2.50
2023-05-19T07:15:47.383Z,3.10
2023-05-19T07:16:46.658Z,2.90
2023-05-19T07:17:46.358Z,2.80
2023-05-19T07:18:46.352Z,2.90
2023-05-19T07:19:46.394Z,2.70
2023-05-19T07:20:46.392Z,2.40
2023-05-19T07:21:46.376Z,2.50
2023-05-19T07:22:46.508Z,3.10
2023-05-19T07:23:46.274Z,2.70
2023-05-19T07:24:46.304Z,2.70
2023-05-19T07:25:46.269Z,2.70
2023-05-19T07:26:46.286Z,2.80
2023-05-19T07:27:46.233Z,2.90
2023-05-19T07:28:46.645Z,2.40
2023-05-19T07:29:46.257Z,2.70
2023-05-19T07:30:46.243Z,2.80
2023-05-19T07:31:46.327Z,2.80
2023-05-19T07:32:46.289Z,2.60
2023-05-19T07:33:46.248Z,2.50
2023-05-19T07:34:46.196Z,2.90
2023-05-19T07:35:46.214Z,3.00
2023-05-19T07:36:46.218Z,2.60
2023-05-19T07:37:46.193Z,2.60
2023-05-19T07:38:46.251Z,2.70
2023-05-19T07:39:46.234Z,2.90
2023-05-19T07:40:46.256Z,2.80
2023-05-19T07:41:46.215Z,2.80
2023-05-19T07:42:46.197Z,2.60
2023-05-19T07:43:46.160Z,2.80
2023-05-19T07:44:46.153Z,2.30
2023-05-19T07:45:46.176Z,2.60
2023-05-19T07:46:47.266Z,2.80
2023-05-19T07:47:46.174Z,2.10
2023-05-19T07:48:46.123Z,3.00
2023-05-19T07:49:46.162Z,2.10
2023-05-19T07:50:46.135Z,2.30
2023-05-19T07:51:46.215Z,2.70
2023-05-19T07:52:46.108Z,2.30
2023-05-19T07:53:46.099Z,2.10
2023-05-19T07:54:46.091Z,2.10
2023-05-19T07:55:46.204Z,2.60
2023-05-19T07:56:46.100Z,2.20
2023-05-19T07:57:46.173Z,2.40
2023-05-19T07:58:46.137Z,2.10
2023-05-19T07:59:46.264Z,2.50
2023-05-19T08:00:46.107Z,2.30
2023-05-19T08:01:46.042Z,3.10
2023-05-19T08:02:46.178Z,2.40
2023-05-19T08:03:46.192Z,2.80
2023-05-19T08:04:46.056Z,2.30
2023-05-19T08:05:46.027Z,2.70
2023-05-19T08:06:46.001Z,2.70
2023-05-19T08:07:45.998Z,2.30
2023-05-19T08:08:46.044Z,2.20
2023-05-19T08:09:46.024Z,2.40
2023-05-19T08:10:45.965Z,2.20
2023-05-19T08:11:46.029Z,2.60
2023-05-19T08:12:45.957Z,2.30
2023-05-19T08:13:45.963Z,2.60
2023-05-19T08:14:45.954Z,2.50
2023-05-19T08:15:45.975Z,2.50
2023-05-19T08:16:45.970Z,2.40
2023-05-19T08:17:45.999Z,2.10
2023-05-19T08:18:46.012Z,2.90
2023-05-19T08:19:45.961Z,3.00
2023-05-19T08:20:46.000Z,2.30
2023-05-19T08:21:45.947Z,2.80
2023-05-19T08:22:45.933Z,2.20
2023-05-19T08:23:45.922Z,2.30
2023-05-19T08:24:45.952Z,2.70
2023-05-19T08:25:46.025Z,2.50
2023-05-19T08:26:45.951Z,2.50
2023-05-19T08:27:45.928Z,2.30
2023-05-19T08:28:45.867Z,2.60
2023-05-19T08:29:45.885Z,2.50
2023-05-19T08:30:45.974Z,2.10
2023-05-19T08:31:46.008Z,2.30
2023-05-19T08:32:45.918Z,2.50
2023-05-19T08:33:45.951Z,2.10
2023-05-19T08:34:45.890Z,2.10
2023-05-19T08:35:45.912Z,2.40
2023-05-19T08:36:45.921Z,2.20
2023-05-19T08:37:45.863Z,2.30
2023-05-19T08:38:46.090Z,2.30
2023-05-19T08:39:45.852Z,2.60
2023-05-19T08:40:45.859Z,2.60
2023-05-19T08:41:45.906Z,2.30
2023-05-19T08:42:45.875Z,2.40
2023-05-19T08:43:45.791Z,2.20
2023-05-19T08:44:45.794Z,2.50
2023-05-19T08:45:45.784Z,2.40
2023-05-19T08:46:45.843Z,2.30
2023-05-19T08:47:45.803Z,2.50
2023-05-19T08:48:45.777Z,2.70
2023-05-19T08:49:45.762Z,2.50
2023-05-19T08:50:45.764Z,2.70
2023-05-19T08:51:45.756Z,2.60
2023-05-19T08:52:49.495Z,2.50
2023-05-19T08:53:46.741Z,2.90
2023-05-19T08:54:45.724Z,2.50
2023-05-19T08:55:45.706Z,2.90
2023-05-19T08:56:45.809Z,2.80
2023-05-19T08:57:45.729Z,2.80
2023-05-19T08:58:45.692Z,2.60
2023-05-19T08:59:45.716Z,2.90
2023-05-19T09:00:45.697Z,4.80
2023-05-19T09:01:46.534Z,3.60
2023-05-19T09:02:55.172Z,3.40
2023-05-19T09:03:47.684Z,2.10
2023-05-19T09:04:45.742Z,2.30
2023-05-19T09:05:45.687Z,2.50
2023-05-19T09:06:45.625Z,3.10
2023-05-19T09:07:46.456Z,2.50
2023-05-19T09:08:45.590Z,2.20
2023-05-19T09:09:45.654Z,2.40
2023-05-19T09:10:45.622Z,2.90
2023-05-19T09:11:46.492Z,2.60
2023-05-19T09:12:45.583Z,2.20
2023-05-19T09:13:45.611Z,2.70
2023-05-19T09:14:45.568Z,2.40
2023-05-19T09:15:45.689Z,2.20
2023-05-19T09:16:45.615Z,2.30
2023-05-19T09:17:45.609Z,2.50
2023-05-19T09:18:45.613Z,2.60
2023-05-19T09:19:45.573Z,2.40
2023-05-19T09:20:45.564Z,2.30
2023-05-19T09:21:45.703Z,2.20
2023-05-19T09:22:45.565Z,2.80
2023-05-19T09:23:45.566Z,2.50
2023-05-19T09:24:45.522Z,2.80
2023-05-19T09:25:45.510Z,2.60
2023-05-19T09:26:45.530Z,2.60
2023-05-19T09:27:45.512Z,2.30
2023-05-19T09:28:45.510Z,2.50
2023-05-19T09:29:45.556Z,2.50
2023-05-19T09:30:45.524Z,2.30
2023-05-19T09:31:45.649Z,2.40
2023-05-19T09:32:45.523Z,2.30
2023-05-19T09:33:46.081Z,2.40
2023-05-19T09:34:46.499Z,2.50
2023-05-19T09:35:45.494Z,2.40
2023-05-19T09:36:45.485Z,2.40
2023-05-19T09:37:45.470Z,3.20
2023-05-19T09:38:45.454Z,2.80
2023-05-19T09:39:45.450Z,2.50
2023-05-19T09:40:45.414Z,2.30
2023-05-19T09:41:45.494Z,2.70
2023-05-19T09:42:45.409Z,2.80
2023-05-19T09:43:45.403Z,2.40
2023-05-19T09:44:45.497Z,2.40
2023-05-19T09:45:45.443Z,2.60
2023-05-19T09:46:45.436Z,2.30
2023-05-19T09:47:45.412Z,2.40
2023-05-19T09:48:45.408Z,2.70
2023-05-19T09:49:45.387Z,2.50
2023-05-19T09:50:45.361Z,2.50
2023-05-19T09:51:45.357Z,2.50
2023-05-19T09:52:45.369Z,2.70
2023-05-19T09:53:45.349Z,2.90
2023-05-19T09:54:45.376Z,2.80
2023-05-19T09:55:45.330Z,2.40
2023-05-19T09:56:45.384Z,2.60
2023-05-19T09:57:45.375Z,2.80
2023-05-19T09:58:45.572Z,2.40
2023-05-19T09:59:45.320Z,2.60
2023-05-19T10:00:45.386Z,3.20
2023-05-19T10:01:45.357Z,2.30
2023-05-19T10:02:45.467Z,2.40
2023-05-19T10:03:45.309Z,2.30
2023-05-19T10:04:45.879Z,2.80
2023-05-19T10:05:45.293Z,2.20
2023-05-19T10:06:45.522Z,2.50
2023-05-19T10:07:46.040Z,2.50
2023-05-19T10:08:45.270Z,2.40
2023-05-19T10:09:45.278Z,2.40
2023-05-19T10:10:45.265Z,2.00
2023-05-19T10:11:45.584Z,2.10
2023-05-19T10:12:45.241Z,2.50
2023-05-19T10:13:45.260Z,2.60
2023-05-19T10:14:45.245Z,2.70
2023-05-19T10:15:57.024Z,2.40
2023-05-19T10:16:47.251Z,3.10
2023-05-19T10:17:45.273Z,2.20
2023-05-19T10:18:45.219Z,2.00
2023-05-19T10:19:45.204Z,2.20
2023-05-19T10:20:45.196Z,2.20
2023-05-19T10:21:45.172Z,1.80
2023-05-19T10:22:45.990Z,2.10
2023-05-19T10:23:45.172Z,2.10
2023-05-19T10:24:45.305Z,2.10
2023-05-19T10:25:45.168Z,2.00
2023-05-19T10:26:45.152Z,2.20
2023-05-19T10:27:45.137Z,2.10
2023-05-19T10:28:45.166Z,2.20
2023-05-19T10:29:45.152Z,2.50
2023-05-19T10:30:45.104Z,2.40
2023-05-19T10:31:45.166Z,2.30
2023-05-19T10:32:45.224Z,2.60
2023-05-19T10:33:45.122Z,2.40
2023-05-19T10:34:45.154Z,2.20
2023-05-19T10:35:46.055Z,2.30
2023-05-19T10:36:46.190Z,2.30
2023-05-19T10:37:45.085Z,2.10
2023-05-19T10:38:46.190Z,2.30
2023-05-19T10:39:45.500Z,2.50
2023-05-19T10:40:45.059Z,2.60
2023-05-19T10:41:45.723Z,2.80
2023-05-19T10:42:45.154Z,3.70
2023-05-19T10:43:46.379Z,2.20
2023-05-19T10:44:45.077Z,3.50
2023-05-19T10:45:45.031Z,4.90
2023-05-19T10:46:45.091Z,3.70
2023-05-19T10:47:45.976Z,3.10
2023-05-19T10:48:45.007Z,2.60
2023-05-19T10:49:45.033Z,2.20
2023-05-19T10:50:45.000Z,2.00
2023-05-19T10:51:44.997Z,2.90
2023-05-19T10:52:45.011Z,2.60
2023-05-19T10:53:44.980Z,2.60
2023-05-19T10:54:44.981Z,2.00
2023-05-19T10:55:44.962Z,2.40
2023-05-19T10:56:44.951Z,2.10
2023-05-19T10:57:45.490Z,2.30
2023-05-19T10:58:44.974Z,3.10
2023-05-19T10:59:45.009Z,2.00
2023-05-19T11:00:45.154Z,2.10
2023-05-19T11:01:45.015Z,2.30
2023-05-19T11:02:44.955Z,2.00
2023-05-19T11:03:44.937Z,2.00
2023-05-19T11:04:45.003Z,2.20
2023-05-19T11:05:44.900Z,2.00
2023-05-19T11:06:44.935Z,2.00
2023-05-19T11:07:44.951Z,1.90
2023-05-19T11:08:44.947Z,2.30
2023-05-19T11:09:45.522Z,2.20
2023-05-19T11:10:44.911Z,2.10
2023-05-19T11:11:44.918Z,2.20
2023-05-19T11:12:44.879Z,2.20
2023-05-19T11:13:44.859Z,2.20
2023-05-19T11:14:45.052Z,2.20
2023-05-19T11:15:44.851Z,2.30
2023-05-19T11:16:44.910Z,1.60
2023-05-19T11:17:44.856Z,2.00
2023-05-19T11:18:44.935Z,2.30
2023-05-19T11:19:44.864Z,2.10
2023-05-19T11:20:44.828Z,2.00
2023-05-19T11:21:44.816Z,1.90
2023-05-19T11:22:44.840Z,2.20
2023-05-19T11:23:44.836Z,2.90
2023-05-19T11:24:44.883Z,2.10
2023-05-19T11:25:44.869Z,2.30
2023-05-19T11:26:45.341Z,2.40
2023-05-19T11:27:44.846Z,2.40
2023-05-19T11:28:44.786Z,2.60
2023-05-19T11:29:47.588Z,2.00
2023-05-19T11:30:44.896Z,2.00
2023-05-19T11:31:44.836Z,2.10
2023-05-19T11:32:44.778Z,2.10
2023-05-19T11:33:44.736Z,2.40
2023-05-19T11:34:44.760Z,2.40
2023-05-19T11:35:44.728Z,2.30
2023-05-19T11:36:44.749Z,2.20
2023-05-19T11:37:44.711Z,2.40
2023-05-19T11:38:44.695Z,2.30
2023-05-19T11:39:44.685Z,2.40
2023-05-19T11:40:44.675Z,2.40
2023-05-19T11:41:44.727Z,2.00
2023-05-19T11:42:44.688Z,2.40
2023-05-19T11:43:44.664Z,3.10
2023-05-19T11:44:44.742Z,2.40
2023-05-19T11:45:44.700Z,2.40
2023-05-19T11:46:44.679Z,1.90
2023-05-19T11:48:00.232Z,2.20
2023-05-19T11:48:46.690Z,2.40
2023-05-19T11:49:44.657Z,2.20
2023-05-19T11:50:44.620Z,2.20
2023-05-19T11:51:44.634Z,2.30
2023-05-19T11:52:44.618Z,2.20
2023-05-19T11:53:44.627Z,2.20
2023-05-19T11:54:44.638Z,2.10
2023-05-19T11:55:44.617Z,2.20
2023-05-19T11:56:44.586Z,2.10
2023-05-19T11:57:56.005Z,2.30
2023-05-19T11:58:45.625Z,2.60
2023-05-19T11:59:44.562Z,2.30
2023-05-19T12:00:44.611Z,2.60
2023-05-19T12:01:44.610Z,2.30
2023-05-19T12:02:46.577Z,1.90
2023-05-19T12:03:45.935Z,2.50
2023-05-19T12:04:46.826Z,2.30
2023-05-19T12:05:45.930Z,2.50
2023-05-19T12:06:47.938Z,2.50
2023-05-19T12:07:51.805Z,3.40
2023-05-19T12:08:47.191Z,2.30
2023-05-19T12:09:45.803Z,2.40
2023-05-19T12:10:47.081Z,1.90
2023-05-19T12:11:47.731Z,2.00
2023-05-19T12:12:46.682Z,2.20
2023-05-19T12:13:45.492Z,1.90
2023-05-19T12:14:46.319Z,2.10
2023-05-19T12:15:55.706Z,2.00
2023-05-19T12:16:44.585Z,2.40
2023-05-19T12:17:45.476Z,2.30
2023-05-19T12:18:44.529Z,2.50
2023-05-19T12:19:44.483Z,2.40
2023-05-19T12:20:44.479Z,2.30
2023-05-19T12:21:44.452Z,2.20
2023-05-19T12:22:44.441Z,2.00
2023-05-19T12:23:44.439Z,1.80
2023-05-19T12:24:44.533Z,2.10
2023-05-19T12:25:44.452Z,1.90
2023-05-19T12:26:44.459Z,1.80
2023-05-19T12:27:44.469Z,1.90
2023-05-19T12:28:45.409Z,2.10
2023-05-19T12:29:44.401Z,2.30
2023-05-19T12:30:44.415Z,1.90
2023-05-19T12:31:44.415Z,2.00
2023-05-19T12:32:44.382Z,2.10
2023-05-19T12:33:44.992Z,2.40
2023-05-19T12:34:44.380Z,2.00
2023-05-19T12:35:44.381Z,2.00
2023-05-19T12:36:44.350Z,2.20
2023-05-19T12:37:44.406Z,2.20
2023-05-19T12:38:44.358Z,2.10
2023-05-19T12:39:44.398Z,2.00
2023-05-19T12:40:44.324Z,2.00
2023-05-19T12:41:44.319Z,1.90
2023-05-19T12:42:44.311Z,1.80
2023-05-19T12:43:44.329Z,2.00
2023-05-19T12:44:44.299Z,2.00
2023-05-19T12:45:44.316Z,2.30
2023-05-19T12:46:44.309Z,2.00
2023-05-19T12:47:44.411Z,2.10
2023-05-19T12:48:44.297Z,2.30
2023-05-19T12:49:44.330Z,2.00
2023-05-19T12:50:45.484Z,2.50
2023-05-19T12:51:44.299Z,2.10
2023-05-19T12:52:44.262Z,1.90
2023-05-19T12:53:44.277Z,3.40
2023-05-19T12:54:44.270Z,2.00
2023-05-19T12:55:44.275Z,2.10
2023-05-19T12:56:44.244Z,2.20
2023-05-19T12:57:44.245Z,1.60
2023-05-19T12:58:44.264Z,2.00
2023-05-19T12:59:44.265Z,2.00
2023-05-19T13:00:44.385Z,2.00
2023-05-19T13:01:44.239Z,2.60
2023-05-19T13:02:44.313Z,1.90
2023-05-19T13:03:44.328Z,2.00
2023-05-19T13:04:44.219Z,1.60
2023-05-19T13:05:44.192Z,2.10
2023-05-19T13:06:44.224Z,1.70
2023-05-19T13:07:44.178Z,1.90
2023-05-19T13:08:44.201Z,1.80
2023-05-19T13:09:44.215Z,1.90
2023-05-19T13:10:44.155Z,1.70
2023-05-19T13:11:44.174Z,1.60
2023-05-19T13:12:44.142Z,2.20
2023-05-19T13:13:44.130Z,2.20
2023-05-19T13:14:44.166Z,2.30
2023-05-19T13:15:44.140Z,2.00
2023-05-19T13:16:44.135Z,1.80